Time;durP1;ratioP1;P1;durP2;ratioP2;P2;SDS_P1;SDS_P2;PMS_P1;PMS_P2;Temp;Humidity;BMP_temperature;BMP_pressure;BME280_temperature;BME280_humidity;BME280_pressure;Samples;Min_cycle;Max_cycle;Signal;HPM_P1;HPM_P2
2022/03/24 00:02:39;;;;;;;;;47.60;37.00;;;;;15.91;20.82;99698.13;6268724;27;98796;-68
2022/03/24 00:05:44;;;;;;;;;46.40;38.40;;;;;15.78;20.88;99695.66;6284472;27;100094;-68
2022/03/24 00:08:48;;;;;;;;;44.20;37.00;;;;;15.64;21.22;99695.03;6303439;27;96524;-68
2022/03/24 00:11:51;;;;;;;;;49.00;39.00;;;;;15.41;21.93;99689.53;6310495;27;97508;-68
2022/03/24 00:14:54;;;;;;;;;48.60;39.60;;;;;14.93;22.92;99681.47;6291906;27;97037;-69
2022/03/24 00:17:57;;;;;;;;;51.40;39.40;;;;;14.61;23.43;99694.47;6272448;27;96517;-69
2022/03/24 00:21:02;;;;;;;;;49.00;40.00;;;;;14.37;23.15;99696.19;6290701;27;97001;-69
2022/03/24 00:24:07;;;;;;;;;52.00;41.00;;;;;14.25;23.65;99687.13;6295876;27;96974;-69
2022/03/24 00:27:10;;;;;;;;;50.50;41.00;;;;;14.10;23.61;99684.78;6292543;27;97020;-68
2022/03/24 00:30:15;;;;;;;;;53.60;42.00;;;;;13.92;24.02;99682.06;6313816;27;96562;-68
2022/03/24 00:33:18;;;;;;;;;50.60;39.80;;;;;13.75;24.39;99673.66;6294385;27;98780;-68
2022/03/24 00:36:24;;;;;;;;;53.00;41.00;;;;;13.55;24.51;99678.44;6276906;27;98785;-70
2022/03/24 00:39:27;;;;;;;;;53.67;41.67;;;;;13.33;25.26;99672.59;6270018;27;97960;-69
2022/03/24 00:42:30;;;;;;;;;53.00;41.75;;;;;13.24;25.05;99678.50;6294211;27;97494;-69
2022/03/24 00:45:34;;;;;;;;;52.40;42.20;;;;;13.24;24.69;99675.78;6313006;27;96994;-69
2022/03/24 00:48:41;;;;;;;;;55.00;43.00;;;;;13.27;24.83;99681.59;6276864;27;97438;-70
2022/03/24 00:51:46;;;;;;;;;54.60;44.00;;;;;13.33;24.73;99675.28;6294347;27;98426;-68
2022/03/24 00:54:49;;;;;;;;;52.40;43.00;;;;;13.40;24.44;99672.50;6275483;27;97006;-69
2022/03/24 00:57:53;;;;;;;;;54.40;42.80;;;;;13.45;24.28;99676.22;6308817;27;97413;-68
2022/03/24 01:00:56;;;;;;;;;54.80;42.40;;;;;13.50;24.49;99686.38;6313807;27;98208;-68
2022/03/24 01:03:59;;;;;;;;;52.00;41.00;;;;;13.55;24.06;99681.13;6311466;27;96882;-68
2022/03/24 01:07:05;;;;;;;;;51.50;40.25;;;;;13.56;24.42;99687.38;6266449;27;98644;-68
2022/03/24 01:10:09;;;;;;;;;51.00;40.40;;;;;13.54;24.42;99686.78;6315071;27;96739;-69
2022/03/24 01:13:12;;;;;;;;;48.20;38.00;;;;;13.56;24.13;99687.38;6294150;27;96558;-68
2022/03/24 01:16:16;;;;;;;;;49.00;39.00;;;;;13.49;25.03;99687.44;6282941;27;96551;-69
2022/03/24 01:19:21;;;;;;;;;50.20;41.00;;;;;13.35;25.04;99680.47;6311750;27;97936;-68
2022/03/24 01:22:25;;;;;;;;;54.00;42.80;;;;;13.08;25.94;99676.28;6293753;27;97034;-68
2022/03/24 01:25:29;;;;;;;;;56.00;43.00;;;;;12.77;26.29;99679.78;6311272;27;97537;-68
2022/03/24 01:28:33;;;;;;;;;54.25;44.00;;;;;12.19;26.84;99677.13;6312759;27;97091;-69
2022/03/24 01:31:42;;;;;;;;;56.00;43.40;;;;;11.88;27.78;99685.94;6277965;27;98525;-69
2022/03/24 01:34:45;;;;;;;;;52.00;42.00;;;;;11.51;28.29;99683.88;6294716;27;98784;-70
2022/03/24 01:37:50;;;;;;;;;53.00;42.00;;;;;11.38;28.09;99679.31;6292734;27;97558;-68
2022/03/24 01:40:53;;;;;;;;;53.00;42.00;;;;;11.33;28.62;99676.41;6306802;27;97929;-69
2022/03/24 01:43:59;;;;;;;;;56.20;43.00;;;;;11.32;28.33;99679.31;6290224;27;97158;-69
2022/03/24 01:47:05;;;;;;;;;52.00;42.00;;;;;11.38;28.22;99673.06;6291690;27;98401;-68
2022/03/24 01:50:11;;;;;;;;;52.20;40.40;;;;;11.42;28.05;99679.72;6299974;27;97483;-69
2022/03/24 01:53:17;;;;;;;;;52.00;40.00;;;;;11.47;27.98;99680.75;6292345;27;96680;-68
2022/03/24 01:56:21;;;;;;;;;49.00;40.00;;;;;11.49;27.82;99675.97;6276770;27;97284;-68
2022/03/24 01:59:25;;;;;;;;;48.00;39.00;;;;;11.49;28.36;99672.44;6295208;27;97500;-69
2022/03/24 02:02:29;;;;;;;;;52.00;40.00;;;;;11.50;28.01;99668.69;6291557;27;97510;-68
2022/03/24 02:05:33;;;;;;;;;47.40;38.00;;;;;11.59;27.88;99675.53;6290008;27;99675;-68
2022/03/24 02:08:38;;;;;;;;;50.00;40.00;;;;;11.72;27.50;99680.94;6311101;27;96502;-68
2022/03/24 02:11:41;;;;;;;;;50.40;39.00;;;;;11.80;27.41;99678.06;6288876;27;100119;-68
2022/03/24 02:14:44;;;;;;;;;50.40;40.60;;;;;11.81;27.43;99685.13;6294498;27;96955;-69
2022/03/24 02:17:48;;;;;;;;;54.00;42.50;;;;;11.81;27.67;99677.03;6301275;27;97487;-67
2022/03/24 02:20:52;;;;;;;;;51.00;40.00;;;;;11.76;27.75;99682.22;6284563;27;97101;-67
2022/03/24 02:23:59;;;;;;;;;48.50;39.00;;;;;11.78;27.68;99688.22;6267145;27;97056;-67
2022/03/24 02:27:03;;;;;;;;;48.60;39.00;;;;;11.78;27.76;99690.13;6310628;27;96710;-68
2022/03/24 02:30:08;;;;;;;;;49.20;39.00;;;;;11.72;27.91;99691.75;6297847;27;96816;-69
2022/03/24 02:33:12;;;;;;;;;48.33;39.33;;;;;11.48;27.89;99649.19;6316345;27;97013;-67
2022/03/24 02:36:16;;;;;;;;;52.60;41.60;;;;;11.53;28.46;99689.91;6315455;27;97493;-68
2022/03/24 02:39:21;;;;;;;;;50.40;39.00;;;;;11.29;29.07;99684.06;6295807;27;100079;-68
2022/03/24 02:42:27;;;;;;;;;53.80;42.60;;;;;11.10;29.16;99681.34;6315575;27;96722;-66
2022/03/24 02:45:31;;;;;;;;;50.60;39.00;;;;;10.96;29.33;99694.00;6317450;27;97546;-67
2022/03/24 02:48:34;;;;;;;;;49.00;39.00;;;;;10.96;29.29;99695.84;6306358;27;96845;-66
2022/03/24 02:51:37;;;;;;;;;49.80;39.40;;;;;11.04;29.08;99695.69;6296575;27;96695;-68
2022/03/24 02:54:42;;;;;;;;;51.00;39.00;;;;;11.12;28.66;99693.59;6294371;27;98432;-68
2022/03/24 02:57:46;;;;;;;;;49.75;40.00;;;;;11.20;28.81;99697.97;6312910;27;96873;-67
2022/03/24 03:00:49;;;;;;;;;51.20;40.00;;;;;11.29;28.51;99702.97;6311638;27;96801;-67
2022/03/24 03:03:53;;;;;;;;;53.00;40.80;;;;;11.32;28.56;99712.53;6276233;27;97147;-69
2022/03/24 03:07:02;;;;;;;;;49.60;38.60;;;;;11.35;28.59;99705.88;6313225;27;97034;-67
2022/03/24 03:10:08;;;;;;;;;49.80;40.00;;;;;11.38;28.47;99717.09;6312176;27;96657;-67
2022/03/24 03:13:12;;;;;;;;;53.00;41.20;;;;;11.43;28.28;99717.31;6282210;27;97894;-67
2022/03/24 03:16:15;;;;;;;;;52.60;42.40;;;;;11.48;28.18;99711.28;6313899;27;97429;-67
2022/03/24 03:19:19;;;;;;;;;51.00;42.00;;;;;11.53;28.16;99722.31;6314266;27;97349;-69
2022/03/24 03:22:22;;;;;;;;;53.00;42.25;;;;;11.53;28.38;99719.59;6299233;27;96656;-66
2022/03/24 03:25:27;;;;;;;;;54.00;41.00;;;;;11.47;28.40;99721.25;6279337;27;100107;-68
2022/03/24 03:28:30;;;;;;;;;55.00;42.00;;;;;11.49;28.25;99729.13;6315641;27;96873;-69
2022/03/24 03:31:34;;;;;;;;;50.60;41.00;;;;;11.11;28.45;99678.44;6296765;27;97068;-68
2022/03/24 03:34:38;;;;;;;;;50.00;40.00;;;;;11.28;28.91;99725.63;6315800;27;96365;-68
2022/03/24 03:37:41;;;;;;;;;52.00;40.80;;;;;11.14;29.24;99725.81;6278952;27;98733;-67
2022/03/24 03:40:46;;;;;;;;;51.75;39.50;;;;;11.08;28.99;99732.00;6314276;27;97472;-67
2022/03/24 03:43:50;;;;;;;;;48.20;39.00;;;;;11.04;28.90;99719.97;6313834;27;97700;-67
2022/03/24 03:46:54;;;;;;;;;49.60;40.60;;;;;11.14;28.72;99728.50;6295804;27;97096;-67
2022/03/24 03:49:57;;;;;;;;;51.50;40.00;;;;;11.14;28.87;99739.28;6295487;27;97942;-67
2022/03/24 03:53:08;;;;;;;;;54.00;41.60;;;;;11.12;28.74;99744.88;6314652;27;96471;-69
2022/03/24 03:56:13;;;;;;;;;51.20;40.00;;;;;11.09;29.17;99739.06;6313846;27;98131;-69
2022/03/24 03:59:16;;;;;;;;;54.20;41.40;;;;;11.04;29.10;99742.38;6295923;27;98589;-67
2022/03/24 04:02:19;;;;;;;;;51.00;40.60;;;;;10.90;29.64;99746.06;6298945;27;96903;-69
2022/03/24 04:05:25;;;;;;;;;55.60;42.80;;;;;10.90;29.40;99737.97;6288108;27;96998;-68
2022/03/24 04:08:29;;;;;;;;;47.00;38.75;;;;;10.82;29.68;99747.09;6305825;27;96863;-67
2022/03/24 04:11:35;;;;;;;;;52.80;41.00;;;;;10.70;29.63;99743.28;6285052;27;96999;-67
2022/03/24 04:14:38;;;;;;;;;49.50;39.00;;;;;10.53;29.97;99747.38;6296028;27;96961;-67
2022/03/24 04:17:44;;;;;;;;;46.00;38.00;;;;;10.34;30.46;99750.81;6294981;27;99527;-67
2022/03/24 04:20:47;;;;;;;;;49.00;40.00;;;;;10.23;30.64;99760.28;6313719;27;96963;-67
2022/03/24 04:23:51;;;;;;;;;52.20;40.80;;;;;10.19;30.56;99761.72;6289951;27;96611;-66
2022/03/24 04:26:56;;;;;;;;;49.25;39.00;;;;;10.12;30.76;99758.09;6312898;27;97468;-67
2022/03/24 04:29:59;;;;;;;;;49.80;39.00;;;;;10.10;31.12;99768.25;6312988;27;97626;-67
2022/03/24 04:33:02;;;;;;;;;49.40;39.40;;;;;10.10;30.96;99784.41;6313261;27;97366;-68
2022/03/24 04:36:08;;;;;;;;;49.50;39.75;;;;;10.09;31.17;99780.06;6312245;27;97725;-68
2022/03/24 04:39:11;;;;;;;;;54.20;43.00;;;;;10.04;31.42;99782.50;6276867;27;99362;-67
2022/03/24 04:42:16;;;;;;;;;52.25;41.00;;;;;9.94;31.73;99777.47;6312112;27;96810;-66
2022/03/24 04:45:20;;;;;;;;;52.00;41.00;;;;;9.79;32.00;99759.72;6287819;27;96906;-68
2022/03/24 04:48:23;;;;;;;;;53.00;41.00;;;;;9.88;31.88;99788.19;6309949;27;96555;-68
2022/03/24 04:51:26;;;;;;;;;51.60;41.60;;;;;9.82;31.85;99788.97;6310762;27;97095;-67
2022/03/24 04:54:30;;;;;;;;;53.40;40.40;;;;;9.80;31.80;99791.88;6310135;27;96878;-67
2022/03/24 04:57:35;;;;;;;;;52.00;40.60;;;;;9.80;32.03;99782.94;6307573;27;97401;-66
2022/03/24 05:00:38;;;;;;;;;51.00;40.00;;;;;9.82;31.93;99787.09;6289472;27;99441;-66
2022/03/24 05:03:46;;;;;;;;;50.60;40.60;;;;;9.91;31.67;99796.72;6310037;27;97302;-67
2022/03/24 05:06:50;;;;;;;;;51.80;42.00;;;;;10.02;31.58;99800.72;6271371;27;100171;-69
2022/03/24 05:09:53;;;;;;;;;55.00;44.00;;;;;9.91;31.18;99760.88;6310230;27;97217;-68
2022/03/24 05:12:58;;;;;;;;;55.80;43.80;;;;;10.13;31.13;99789.41;6306145;27;97335;-68
2022/03/24 05:16:01;;;;;;;;;52.50;41.00;;;;;10.28;31.06;99800.94;6310623;27;96736;-69
2022/03/24 05:19:05;;;;;;;;;53.00;41.00;;;;;10.39;31.12;99808.50;6289769;27;96751;-70
2022/03/24 05:22:09;;;;;;;;;55.40;43.40;;;;;10.53;30.93;99805.88;6283554;27;97733;-69
2022/03/24 05:25:14;;;;;;;;;55.00;43.00;;;;;10.71;30.56;99808.84;6287319;27;97962;-68
2022/03/24 05:28:19;;;;;;;;;56.40;42.00;;;;;10.85;30.54;99808.72;6289535;27;98132;-67
2022/03/24 05:31:22;;;;;;;;;55.60;42.20;;;;;11.01;30.38;99804.00;6287514;27;97339;-68
2022/03/24 05:34:25;;;;;;;;;53.00;42.00;;;;;11.15;30.18;99806.53;6307393;27;96581;-66
2022/03/24 05:37:30;;;;;;;;;50.75;41.00;;;;;11.32;30.95;99803.47;6269309;27;97211;-68
2022/03/24 05:40:35;;;;;;;;;54.00;43.00;;;;;11.49;30.59;99805.59;6301652;27;97649;-67
2022/03/24 05:43:40;;;;;;;;;53.80;42.00;;;;;11.65;30.02;99809.75;6306714;27;97506;-68
2022/03/24 05:46:45;;;;;;;;;55.00;42.00;;;;;11.86;29.70;99808.78;6290466;27;97453;-68
2022/03/24 05:49:49;;;;;;;;;56.00;43.00;;;;;12.08;29.84;99816.47;6308321;27;96988;-67
2022/03/24 05:52:52;;;;;;;;;53.00;43.00;;;;;12.33;29.49;99813.94;6311416;27;97472;-67
2022/03/24 05:55:55;;;;;;;;;52.00;42.75;;;;;12.57;29.20;99824.09;6314905;27;97451;-67
2022/03/24 05:59:00;;;;;;;;;53.20;41.00;;;;;12.78;28.51;99817.59;6313469;27;96703;-67
2022/03/24 06:02:03;;;;;;;;;55.00;42.20;;;;;13.03;28.28;99815.81;6295204;27;97953;-67
2022/03/24 06:05:09;;;;;;;;;52.00;41.00;;;;;13.33;27.86;99829.66;6316696;27;97360;-67
2022/03/24 06:08:13;;;;;;;;;51.00;41.00;;;;;13.57;27.56;99825.34;6294963;27;98601;-72
2022/03/24 06:11:16;;;;;;;;;49.60;40.20;;;;;13.23;26.97;99737.22;6280422;27;96688;-73
2022/03/24 06:14:21;;;;;;;;;53.00;42.00;;;;;14.09;26.64;99826.84;6284339;27;98432;-68
2022/03/24 06:17:25;;;;;;;;;48.20;39.00;;;;;14.37;26.13;99829.13;6296297;27;97882;-70
2022/03/24 06:20:28;;;;;;;;;52.00;42.40;;;;;14.65;25.84;99840.34;6311426;27;97254;-71
2022/03/24 06:23:31;;;;;;;;;52.00;40.00;;;;;14.83;25.69;99835.94;6286638;27;97493;-70
2022/03/24 06:26:35;;;;;;;;;49.50;40.00;;;;;15.08;25.29;99836.69;6290460;27;97830;-69
2022/03/24 06:29:39;;;;;;;;;50.00;40.00;;;;;15.37;25.13;99835.91;6316348;27;98743;-71
2022/03/24 06:32:43;;;;;;;;;52.20;41.00;;;;;15.59;25.20;99837.06;6313949;27;96469;-70
2022/03/24 06:35:48;;;;;;;;;51.60;40.00;;;;;15.84;24.73;99841.50;6280252;27;99697;-72
2022/03/24 06:38:51;;;;;;;;;49.00;40.00;;;;;16.03;24.46;99845.81;6280345;27;97134;-73
2022/03/24 06:41:55;;;;;;;;;52.60;41.00;;;;;16.22;24.15;99846.59;6308263;27;97029;-67
2022/03/24 06:45:00;;;;;;;;;52.00;42.00;;;;;16.19;23.82;99817.09;6284853;27;96630;-74
2022/03/24 06:48:06;;;;;;;;;52.00;40.50;;;;;16.55;23.47;99844.09;6277230;27;97157;-71
2022/03/24 06:51:10;;;;;;;;;53.20;40.40;;;;;16.33;23.26;99774.97;6315778;27;96988;-71
2022/03/24 06:54:14;;;;;;;;;52.00;40.00;;;;;16.70;23.10;99797.38;6302171;27;97635;-71
2022/03/24 06:57:17;;;;;;;;;52.80;41.00;;;;;17.29;22.83;99845.19;6269801;27;98177;-68
2022/03/24 07:00:23;;;;;;;;;53.00;41.40;;;;;17.49;22.71;99852.94;6306649;27;98280;-68
2022/03/24 07:03:26;;;;;;;;;53.33;41.00;;;;;17.63;22.13;99857.06;6296356;27;96912;-68
2022/03/24 07:06:30;;;;;;;;;51.20;41.60;;;;;17.36;22.04;99788.63;6294667;27;97326;-70
2022/03/24 07:09:35;;;;;;;;;53.80;41.00;;;;;17.92;21.86;99864.16;6282867;27;96675;-71
2022/03/24 07:12:38;;;;;;;;;52.00;41.00;;;;;17.99;21.50;99851.16;6280662;27;98976;-70
2022/03/24 07:15:43;;;;;;;;;52.00;42.00;;;;;18.12;21.54;99845.41;6309058;27;96420;-70
2022/03/24 07:18:46;;;;;;;;;51.00;39.50;;;;;18.26;21.55;99826.78;6283397;27;96635;-71
2022/03/24 07:21:50;;;;;;;;;49.60;39.00;;;;;18.57;21.11;99815.25;6290795;27;98662;-72
2022/03/24 07:24:53;;;;;;;;;49.00;38.00;;;;;19.16;20.46;99852.94;6295966;27;97710;-73
2022/03/24 07:27:56;;;;;;;;;50.00;40.40;;;;;19.60;20.95;99853.75;6304584;27;97128;-74
2022/03/24 07:31:09;;;;;;;;;53.00;41.00;;;;;19.92;20.13;99826.47;6278537;27;98472;-72
2022/03/24 07:34:12;;;;;;;;;51.75;40.75;;;;;20.46;19.70;99858.16;6286479;27;98389;-71
2022/03/24 07:37:18;;;;;;;;;53.50;41.00;;;;;20.46;19.63;99786.94;6274960;27;97196;-74
2022/03/24 07:40:23;;;;;;;;;50.00;40.00;;;;;21.32;18.63;99855.09;6281618;27;96572;-67
2022/03/24 07:43:26;;;;;;;;;53.00;42.00;;;;;21.51;18.48;99861.75;6298669;27;96768;-68
2022/03/24 07:46:30;;;;;;;;;49.00;38.00;;;;;21.74;18.13;99854.97;6287126;27;97260;-68
2022/03/24 07:49:34;;;;;;;;;50.00;41.00;;;;;22.08;18.53;99852.59;6300360;27;96768;-70
2022/03/24 07:52:37;;;;;;;;;51.50;40.50;;;;;22.29;17.13;99855.06;6296368;27;97455;-70
2022/03/24 07:55:42;;;;;;;;;45.00;36.00;;;;;21.97;17.00;99777.63;6303617;27;96459;-71
2022/03/24 07:58:45;;;;;;;;;41.40;33.60;;;;;22.36;16.93;99852.88;6256703;27;99059;-69
2022/03/24 08:01:50;;;;;;;;;44.40;35.00;;;;;22.51;17.51;99854.78;6313946;27;97480;-70
2022/03/24 08:04:53;;;;;;;;;45.00;35.00;;;;;22.65;16.98;99849.53;6279107;27;96449;-68
2022/03/24 08:07:57;;;;;;;;;46.00;38.00;;;;;22.65;16.56;99855.03;6306203;27;97116;-71
2022/03/24 08:11:00;;;;;;;;;48.50;36.00;;;;;22.65;16.72;99853.09;6306914;27;96688;-70
2022/03/24 08:14:03;;;;;;;;;46.00;37.00;;;;;22.45;16.81;99851.22;6304351;27;97367;-72
2022/03/24 08:17:08;;;;;;;;;44.50;36.50;;;;;22.54;17.08;99853.38;6304502;27;96678;-71
2022/03/24 08:20:12;;;;;;;;;45.50;36.00;;;;;21.88;17.08;99787.47;6292082;27;98502;-71
2022/03/24 08:23:16;;;;;;;;;40.40;34.00;;;;;22.75;16.79;99850.38;6297808;27;96692;-71
2022/03/24 08:26:20;;;;;;;;;43.00;35.00;;;;;22.80;16.54;99844.88;6317902;27;98055;-69
2022/03/24 08:29:28;;;;;;;;;44.00;35.40;;;;;22.97;16.08;99862.97;6285993;27;96673;-72
2022/03/24 08:32:33;;;;;;;;;42.00;33.00;;;;;23.10;16.01;99852.22;6276581;27;96576;-73
2022/03/24 08:35:36;;;;;;;;;39.00;34.00;;;;;23.08;15.94;99868.16;6288790;27;99636;-71
2022/03/24 08:38:39;;;;;;;;;37.60;33.00;;;;;22.76;15.74;99863.03;6286825;27;96948;-71
2022/03/24 08:41:43;;;;;;;;;39.00;33.00;;;;;22.67;16.31;99867.41;6290979;27;96773;-71
2022/03/24 08:44:46;;;;;;;;;36.00;30.00;;;;;22.64;16.21;99875.38;6291913;27;97470;-73
2022/03/24 08:47:50;;;;;;;;;39.60;33.00;;;;;23.20;16.16;99863.19;6277588;27;98621;-71
2022/03/24 08:50:54;;;;;;;;;36.60;30.60;;;;;23.92;15.53;99864.47;6304405;27;96419;-70
2022/03/24 08:53:58;;;;;;;;;40.60;33.00;;;;;24.65;15.25;99863.63;6311093;27;96938;-71
2022/03/24 08:57:02;;;;;;;;;40.00;32.00;;;;;25.01;14.72;99874.06;6291125;27;97610;-72
2022/03/24 09:00:12;;;;;;;;;39.00;34.00;;;;;25.44;14.34;99871.34;6291471;27;98441;-71
2022/03/24 09:03:17;;;;;;;;;37.40;33.00;;;;;25.73;13.92;99879.53;6275310;27;96987;-72
2022/03/24 09:06:21;;;;;;;;;36.50;31.00;;;;;25.41;13.86;99871.94;6306322;27;97173;-73
2022/03/24 09:09:25;;;;;;;;;36.80;31.00;;;;;24.99;13.52;99832.13;6308185;27;96928;-73
2022/03/24 09:12:28;;;;;;;;;36.80;31.80;;;;;25.54;14.10;99867.63;6305205;27;97525;-74
2022/03/24 09:15:32;;;;;;;;;36.00;31.00;;;;;26.28;13.58;99873.22;6311665;27;96879;-72
2022/03/24 09:18:37;;;;;;;;;38.80;31.40;;;;;26.51;12.97;99784.88;6294777;27;97075;-71
2022/03/24 09:21:40;;;;;;;;;39.00;30.00;;;;;27.24;12.62;99856.81;6294138;27;97145;-69
2022/03/24 09:24:43;;;;;;;;;39.40;31.60;;;;;27.01;12.89;99860.59;6308435;27;97160;-71
2022/03/24 09:27:47;;;;;;;;;38.00;32.00;;;;;26.91;12.69;99841.44;6297244;27;97021;-70
2022/03/24 09:30:51;;;;;;;;;42.20;33.60;;;;;27.07;13.29;99864.91;6302660;27;97554;-69
2022/03/24 09:33:55;;;;;;;;;39.00;32.00;;;;;27.41;12.73;99857.03;6297794;27;97966;-71
2022/03/24 09:36:59;;;;;;;;;38.80;32.00;;;;;27.79;12.45;99857.59;6298387;27;96525;-70
2022/03/24 09:40:04;;;;;;;;;36.80;31.80;;;;;28.23;12.37;99862.41;6296912;27;98475;-70
2022/03/24 09:43:07;;;;;;;;;32.20;28.80;;;;;28.72;12.29;99866.16;6276619;27;99636;-70
2022/03/24 09:46:10;;;;;;;;;33.80;30.40;;;;;29.07;11.70;99859.66;6300336;27;96884;-73
2022/03/24 09:49:15;;;;;;;;;36.00;30.50;;;;;29.45;11.22;99850.81;6280592;27;96861;-72
2022/03/24 09:52:18;;;;;;;;;36.20;29.80;;;;;29.65;10.42;99858.53;6298673;27;97420;-72
2022/03/24 09:55:22;;;;;;;;;41.00;32.00;;;;;29.58;10.65;99869.31;6276943;27;96656;-73
2022/03/24 09:58:26;;;;;;;;;38.33;32.00;;;;;29.73;10.91;99868.84;6315509;27;96792;-74
2022/03/24 10:01:30;;;;;;;;;32.20;29.20;;;;;29.90;10.20;99866.13;6310512;27;97727;-72
2022/03/24 10:04:48;;;;;;;;;33.00;29.50;;;;;29.87;10.51;99854.78;6291094;27;98565;-71
2022/03/24 10:07:52;;;;;;;;;30.75;28.50;;;;;29.98;10.20;99856.16;6315770;27;96934;-70
2022/03/24 10:11:00;;;;;;;;;31.00;27.00;;;;;29.69;10.19;99859.53;6311621;27;97058;-71
2022/03/24 10:14:05;;;;;;;;;32.00;29.00;;;;;29.42;10.94;99852.25;6306043;27;96707;-71
2022/03/24 10:17:10;;;;;;;;;31.40;26.80;;;;;29.66;10.53;99835.97;6291432;27;97300;-70
2022/03/24 10:20:16;;;;;;;;;34.40;30.00;;;;;30.19;10.92;99847.97;6285852;27;97283;-69
2022/03/24 10:23:19;;;;;;;;;31.25;26.25;;;;;30.67;10.55;99848.56;6305325;27;97483;-72
2022/03/24 10:26:23;;;;;;;;;30.00;24.60;;;;;30.78;9.15;99849.84;6300845;27;97071;-74
2022/03/24 10:29:26;;;;;;;;;28.60;25.00;;;;;30.96;9.73;99851.41;6281993;27;98516;-73
2022/03/24 10:32:31;;;;;;;;;26.60;24.00;;;;;31.10;10.06;99851.22;6313091;27;97012;-71
2022/03/24 10:35:36;;;;;;;;;27.00;25.00;;;;;31.15;9.45;99853.00;6295597;27;97551;-72
2022/03/24 10:38:43;;;;;;;;;26.20;23.00;;;;;31.05;9.82;99843.06;6297017;27;96401;-73
2022/03/24 10:41:46;;;;;;;;;25.00;22.00;;;;;31.20;9.18;99847.25;6303752;27;97466;-69
2022/03/24 10:45:20;;;;;;;;;28.00;24.00;;;;;30.46;9.68;99844.84;6296972;27;99600;-71
2022/03/24 10:48:24;;;;;;;;;24.25;21.25;;;;;30.24;9.75;99842.25;6187621;28;98046;-70
2022/03/24 10:51:30;;;;;;;;;26.80;23.00;;;;;30.36;10.31;99831.25;6172824;28;98285;-71
2022/03/24 10:54:46;;;;;;;;;18.40;17.40;;;;;30.38;9.04;99815.03;6185333;28;97220;-70
2022/03/24 10:57:49;;;;;;;;;19.80;17.60;;;;;30.68;8.84;99839.06;6182198;28;97447;-72
2022/03/24 11:00:53;;;;;;;;;22.40;20.00;;;;;30.80;8.35;99827.22;6175113;28;96752;-71
2022/03/24 11:03:57;;;;;;;;;20.00;16.60;;;;;30.86;8.13;99817.56;6182913;28;97369;-69
2022/03/24 11:07:02;;;;;;;;;20.75;19.00;;;;;30.79;8.31;99815.28;6184688;28;97660;-72
2022/03/24 11:10:11;;;;;;;;;21.60;19.00;;;;;30.88;9.15;99818.03;6186035;28;96484;-69
2022/03/24 11:13:25;;;;;;;;;20.00;18.75;;;;;31.21;8.25;99812.66;6187650;28;96862;-71
2022/03/24 11:16:30;;;;;;;;;19.40;18.40;;;;;31.22;8.05;99808.72;6185441;28;97445;-73
2022/03/24 11:19:34;;;;;;;;;19.40;18.00;;;;;31.45;8.26;99817.59;6162551;28;97711;-71
2022/03/24 11:22:44;;;;;;;;;19.25;17.25;;;;;31.70;8.24;99811.06;6241535;27;96638;-72
2022/03/24 11:25:48;;;;;;;;;18.25;16.25;;;;;31.80;8.40;99810.66;6311815;27;97464;-69
2022/03/24 11:28:54;;;;;;;;;17.00;14.33;;;;;31.94;7.69;99805.63;6294432;27;97213;-72
2022/03/24 11:32:01;;;;;;;;;16.75;15.50;;;;;31.45;7.57;99718.09;6418069;22;97879;31
2022/03/24 11:35:14;;;;;;;;;14.60;14.40;;;;;32.06;7.52;99796.50;6234401;22;99616;-88
2022/03/24 11:38:21;;;;;;;;;17.00;15.00;;;;;31.88;7.23;99736.44;6218841;28;99309;-88
2022/03/24 11:41:29;;;;;;;;;12.80;12.80;;;;;31.80;7.10;99750.13;6213635;28;98484;-88
2022/03/24 11:44:44;;;;;;;;;12.00;11.00;;;;;31.79;7.07;99769.97;6232087;28;99929;-89
2022/03/24 11:47:52;;;;;;;;;12.20;11.20;;;;;31.74;7.36;99778.56;6204673;28;100509;-88
2022/03/24 11:50:57;;;;;;;;;12.75;12.00;;;;;31.88;7.46;99787.44;6204066;28;100959;-88
2022/03/24 11:54:04;;;;;;;;;13.80;12.80;;;;;31.91;7.22;99811.88;6196420;28;96907;-88
2022/03/24 11:57:29;;;;;;;;;14.00;13.00;;;;;31.85;7.78;99790.13;6196602;28;96458;-88
2022/03/24 12:00:42;;;;;;;;;14.60;12.60;;;;;31.75;7.90;99767.06;6201773;28;100427;-88
2022/03/24 12:03:48;;;;;;;;;13.00;11.00;;;;;30.87;7.75;99607.56;6204146;28;99425;-88
2022/03/24 12:06:56;;;;;;;;;13.50;10.50;;;;;30.89;7.30;99656.19;6218091;28;98658;-88
2022/03/24 12:10:02;;;;;;;;;15.00;12.00;;;;;30.81;7.25;99657.06;6196155;28;99001;-88
2022/03/24 12:13:21;;;;;;;;;11.40;10.00;;;;;29.31;7.77;99445.41;6179570;28;99749;-88
2022/03/24 12:16:26;;;;;;;;;9.00;9.00;;;;;30.57;7.87;99634.63;6194422;28;100610;-88
2022/03/24 12:19:47;;;;;;;;;9.33;8.00;;;;;31.08;7.75;99749.66;6203838;28;100281;-88
2022/03/24 12:22:50;;;;;;;;;7.00;6.25;;;;;30.72;7.74;99697.25;6185479;28;98861;-88
2022/03/24 12:26:10;;;;;;;;;9.00;8.00;;;;;29.82;7.71;99586.13;6220768;28;97382;-88
2022/03/24 12:29:20;;;;;;;;;8.00;7.00;;;;;30.63;7.95;99755.75;6195373;28;98401;-88
2022/03/24 12:32:29;;;;;;;;;7.00;7.00;;;;;28.89;8.09;99477.63;6203941;28;96758;-88
2022/03/24 12:35:41;;;;;;;;;5.50;5.00;;;;;30.42;7.99;99754.81;6203462;28;99898;-88
2022/03/24 12:38:47;;;;;;;;;6.50;6.00;;;;;30.25;8.13;99741.75;6204070;28;99485;-88
2022/03/24 12:42:08;;;;;;;;;8.60;7.60;;;;;29.92;8.69;99721.22;6180185;28;97555;-88
2022/03/24 12:45:18;;;;;;;;;6.00;6.00;;;;;29.77;8.96;99736.41;6201729;28;96463;-88
2022/03/24 12:48:39;;;;;;;;;8.40;7.40;;;;;28.93;8.96;99608.28;6205459;28;96588;-88
2022/03/24 12:51:50;;;;;;;;;9.00;6.20;;;;;29.85;8.62;99741.16;6230762;28;98472;-88
2022/03/24 12:54:56;;;;;;;;;8.20;7.20;;;;;29.94;9.46;99746.72;6217064;28;98717;-89
2022/03/24 12:58:04;;;;;;;;;9.00;9.00;;;;;28.72;9.10;99533.16;6204557;28;99776;-88
2022/03/24 13:01:09;;;;;;;;;9.00;7.00;;;;;29.81;9.10;99751.28;6185498;28;97913;-89
2022/03/24 13:04:14;;;;;;;;;11.00;10.00;;;;;28.93;9.08;99602.72;6227149;28;100447;-88
2022/03/24 13:07:23;;;;;;;;;10.40;10.00;;;;;29.17;9.36;99653.06;6202000;28;98926;-88
2022/03/24 13:10:35;;;;;;;;;11.25;11.25;;;;;29.03;9.13;99621.84;6187972;28;97549;-88
2022/03/24 13:13:49;;;;;;;;;10.00;7.25;;;;;28.61;9.62;99615.88;6230071;28;98120;-88
2022/03/24 13:17:10;;;;;;;;;9.20;8.00;;;;;27.56;9.69;99423.78;6231389;28;99371;-88
2022/03/24 13:20:14;;;;;;;;;10.00;8.00;;;;;28.39;9.97;99652.84;6202443;28;98812;-88
2022/03/24 13:23:19;;;;;;;;;9.00;8.25;;;;;28.74;10.65;99691.81;6197953;28;97648;-88
2022/03/24 13:26:23;;;;;;;;;8.25;7.25;;;;;27.95;10.70;99572.56;6203462;28;96927;-88
2022/03/24 13:29:44;;;;;;;;;10.00;8.50;;;;;28.79;10.09;99703.59;6204742;28;96839;-88
2022/03/24 13:32:52;;;;;;;;;5.00;5.00;;;;;28.87;10.88;99713.09;6220104;28;96957;-88
2022/03/24 13:35:56;;;;;;;;;5.40;5.40;;;;;28.88;10.80;99705.59;6219595;28;99447;-88
2022/03/24 13:39:01;;;;;;;;;6.00;6.00;;;;;28.84;10.92;99709.00;6194685;28;98950;-88
2022/03/24 13:42:08;;;;;;;;;6.60;6.00;;;;;27.65;10.77;99509.69;6195071;28;98826;-88
2022/03/24 13:45:15;;;;;;;;;9.00;8.00;;;;;27.95;10.97;99564.25;6218856;28;99030;-89
2022/03/24 13:48:22;;;;;;;;;6.00;6.00;;;;;28.67;11.08;99672.03;6180496;28;97543;-89
2022/03/24 13:51:27;;;;;;;;;8.00;6.50;;;;;27.57;11.32;99517.63;6199281;28;99437;-88
2022/03/24 13:54:31;;;;;;;;;7.00;6.00;;;;;28.88;10.88;99692.53;6190640;28;99575;-87
2022/03/24 13:57:45;;;;;;;;;4.60;4.00;;;;;28.75;10.94;99690.69;6215080;28;96880;-89
2022/03/24 14:01:03;;;;;;;;;5.00;5.00;;;;;28.20;11.74;99632.84;6189396;28;99334;-89
2022/03/24 14:04:21;;;;;;;;;6.80;5.00;;;;;28.25;11.73;99659.63;6214737;28;99300;-89
2022/03/24 14:07:24;;;;;;;;;6.00;4.60;;;;;27.08;11.71;99512.25;6198397;28;99136;-88
2022/03/24 14:10:48;;;;;;;;;5.00;4.00;;;;;27.91;11.90;99658.28;6201286;28;99151;-89
2022/03/24 14:13:58;;;;;;;;;4.00;4.00;;;;;27.72;11.97;99657.69;6200681;28;97065;-88
2022/03/24 14:17:12;;;;;;;;;4.00;3.00;;;;;27.65;12.20;99667.59;6217514;28;99535;-89
2022/03/24 14:20:18;;;;;;;;;4.00;4.00;;;;;27.29;12.63;99651.81;6209271;28;99751;-88